Time;durP1;ratioP1;P1;durP2;ratioP2;P2;SDS_P1;SDS_P2;PMS_P1;PMS_P2;Temp;Humidity;BMP_temperature;BMP_pressure;BME280_temperature;BME280_humidity;BME280_pressure;Samples;Min_cycle;Max_cycle;Signal;HPM_P1;HPM_P2
2023/09/20 00:02:51;;;;;;;3.03;2.10;;;;;;;17.95;47.48;99537.72;10283075;28;20248;-78
2023/09/20 00:07:56;;;;;;;2.50;2.08;;;;;;;16.79;49.50;99615.59;10283636;28;20599;-78
2023/09/20 00:12:58;;;;;;;3.07;2.10;;;;;;;17.68;48.19;99522.88;10290897;28;20651;-77
2023/09/20 00:17:59;;;;;;;2.78;1.90;;;;;;;16.65;49.63;99659.22;10288111;28;20233;-77
2023/09/20 00:23:02;;;;;;;1.87;1.77;;;;;;;16.63;50.23;99610.84;10287852;28;20225;-77
2023/09/20 00:28:04;;;;;;;4.87;2.00;;;;;;;17.08;49.70;99528.50;10288996;28;20716;-77
2023/09/20 00:33:06;;;;;;;2.60;1.80;;;;;;;16.94;49.25;99598.97;10288148;28;20280;-77
2023/09/20 00:38:08;;;;;;;3.20;2.00;;;;;;;16.63;50.22;99535.19;10285640;28;20234;-77
2023/09/20 00:43:11;;;;;;;2.63;2.07;;;;;;;16.96;49.72;99558.22;10287110;28;20333;-79
2023/09/20 00:48:13;;;;;;;5.17;2.57;;;;;;;14.82;53.29;99651.34;10285662;28;20254;-77
2023/09/20 00:53:16;;;;;;;6.23;1.73;;;;;;;18.91;46.64;99458.47;10288098;28;20238;-78
2023/09/20 00:58:19;;;;;;;2.37;2.17;;;;;;;17.59;48.30;99545.88;10289192;28;20261;-77
2023/09/20 01:03:24;;;;;;;2.90;2.40;;;;;;;17.98;47.41;99597.63;10288027;28;20262;-78
2023/09/20 01:08:25;;;;;;;2.00;1.90;;;;;;;18.31;46.95;99562.88;10286522;28;20218;-78
2023/09/20 01:13:27;;;;;;;3.40;1.93;;;;;;;16.03;51.08;99681.72;10287310;28;20245;-77
2023/09/20 01:18:29;;;;;;;2.77;2.20;;;;;;;17.33;49.20;99574.25;10282466;28;20211;-78
2023/09/20 01:23:32;;;;;;;2.83;2.30;;;;;;;16.05;50.67;99677.75;10287346;28;20320;-76
2023/09/20 01:28:35;;;;;;;3.20;2.40;;;;;;;16.53;50.90;99599.75;10288663;28;20214;-78
2023/09/20 01:33:38;;;;;;;2.83;2.10;;;;;;;17.35;48.97;99585.66;10293152;28;20250;-74
2023/09/20 01:38:40;;;;;;;2.30;2.10;;;;;;;16.75;49.98;99616.28;10285259;28;20246;-76
2023/09/20 01:43:43;;;;;;;2.47;2.27;;;;;;;16.81;49.47;99627.00;10287384;28;20623;-77
2023/09/20 01:48:45;;;;;;;2.70;2.10;;;;;;;17.71;48.24;99537.78;10283647;28;20802;-77
2023/09/20 01:53:48;;;;;;;2.27;1.83;;;;;;;17.02;49.28;99603.22;10285418;28;20249;-78
2023/09/20 01:58:51;;;;;;;2.07;1.90;;;;;;;17.03;49.39;99577.84;10283066;28;20235;-77
2023/09/20 02:03:56;;;;;;;2.53;2.00;;;;;;;17.86;47.87;99489.38;10247646;28;20226;-78
2023/09/20 02:08:58;;;;;;;2.50;2.30;;;;;;;16.61;50.16;99594.03;10285482;28;20223;-77
2023/09/20 02:14:00;;;;;;;3.43;2.00;;;;;;;18.18;47.79;99442.88;10285241;28;20313;-77
2023/09/20 02:19:03;;;;;;;3.43;2.40;;;;;;;16.60;50.56;99555.41;10280707;28;20233;-77
2023/09/20 02:24:06;;;;;;;4.60;2.33;;;;;;;16.64;49.74;99600.88;10284541;28;21292;-77
2023/09/20 02:29:08;;;;;;;3.37;2.17;;;;;;;16.76;49.49;99618.75;10282165;28;20249;-77
2023/09/20 02:34:11;;;;;;;3.40;1.80;;;;;;;16.78;49.78;99594.22;10282628;28;20329;-74
2023/09/20 02:39:15;;;;;;;8.17;2.50;;;;;;;16.96;49.49;99574.44;10287504;28;20306;-74
2023/09/20 02:44:16;;;;;;;2.07;1.83;;;;;;;16.12;51.22;99610.19;10285927;28;20237;-74
2023/09/20 02:49:20;;;;;;;2.30;2.10;;;;;;;17.16;49.39;99509.25;10281352;28;20234;-76
2023/09/20 02:54:22;;;;;;;2.80;2.23;;;;;;;17.64;48.50;99502.75;10297275;28;20226;-73
2023/09/20 02:59:24;;;;;;;3.37;2.20;;;;;;;17.77;48.24;99482.72;10293925;28;20265;-74
2023/09/20 03:04:25;;;;;;;2.40;2.13;;;;;;;16.47;50.54;99558.28;10278586;28;20234;-74
2023/09/20 03:09:32;;;;;;;2.87;2.10;;;;;;;17.21;49.43;99511.22;10281580;28;20267;-74
2023/09/20 03:14:34;;;;;;;3.23;2.10;;;;;;;17.30;49.38;99490.88;10277738;28;20715;-73
2023/09/20 03:19:36;;;;;;;2.87;2.10;;;;;;;17.62;48.71;99466.16;10280345;28;20246;-74
2023/09/20 03:24:40;;;;;;;2.70;2.00;;;;;;;16.52;50.04;99604.34;10282797;28;20240;-74
2023/09/20 03:29:42;;;;;;;2.37;2.10;;;;;;;17.49;48.88;99500.50;10280581;28;20242;-75
2023/09/20 03:34:44;;;;;;;3.13;2.30;;;;;;;17.80;48.62;99430.81;10280684;28;20769;-74
2023/09/20 03:39:46;;;;;;;2.53;2.20;;;;;;;17.08;49.38;99577.97;10280052;28;20288;-74
2023/09/20 03:44:47;;;;;;;2.33;2.10;;;;;;;18.26;48.11;99428.13;10277594;28;20237;-74
2023/09/20 03:49:52;;;;;;;5.43;2.57;;;;;;;17.17;49.13;99571.19;10284137;28;20645;-74
2023/09/20 03:54:54;;;;;;;4.17;2.20;;;;;;;17.04;49.66;99573.25;10291485;28;20249;-75
2023/09/20 03:59:58;;;;;;;3.70;2.30;;;;;;;17.04;49.94;99543.53;10282238;28;20230;-76
2023/09/20 04:05:05;;;;;;;2.43;2.17;;;;;;;16.28;51.20;99583.66;10278496;28;20254;-76
2023/09/20 04:10:08;;;;;;;2.33;2.20;;;;;;;16.54;51.22;99505.00;10264249;28;20779;-75
2023/09/20 04:15:11;;;;;;;3.03;1.93;;;;;;;17.61;49.20;99457.19;10288134;28;20226;-74
2023/09/20 04:20:20;;;;;;;3.17;2.50;;;;;;;17.12;49.95;99516.16;10293481;28;20241;-75
2023/09/20 04:25:21;;;;;;;2.33;2.13;;;;;;;17.30;49.83;99466.56;10289937;28;20242;-75
2023/09/20 04:30:23;;;;;;;4.07;2.37;;;;;;;17.53;49.49;99428.63;10269183;28;20243;-75
2023/09/20 04:35:26;;;;;;;4.07;2.50;;;;;;;16.46;50.99;99499.91;10260836;28;20930;-74
2023/09/20 04:40:27;;;;;;;2.67;2.27;;;;;;;17.42;49.40;99429.47;10301172;28;20884;-74
2023/09/20 04:45:29;;;;;;;3.33;2.50;;;;;;;17.37;49.56;99437.50;10292155;28;20264;-74
2023/09/20 04:50:31;;;;;;;3.37;2.37;;;;;;;16.65;49.99;99530.41;10284400;28;20280;-76
2023/09/20 04:55:34;;;;;;;3.93;2.50;;;;;;;16.31;51.41;99507.63;10285378;28;20237;-73
2023/09/20 05:00:37;;;;;;;3.17;2.50;;;;;;;16.24;51.71;99492.31;10292543;28;20245;-73
2023/09/20 05:05:39;;;;;;;2.70;2.50;;;;;;;16.79;49.92;99518.31;10288611;28;21803;-73
2023/09/20 05:10:43;;;;;;;3.23;2.60;;;;;;;16.67;50.76;99468.88;10289523;28;20355;-76
2023/09/20 05:15:44;;;;;;;3.03;2.40;;;;;;;16.45;50.90;99509.09;10288033;28;20234;-74
2023/09/20 05:20:46;;;;;;;4.10;2.70;;;;;;;16.18;51.51;99505.88;10290283;28;20290;-74
2023/09/20 05:25:48;;;;;;;3.37;2.10;;;;;;;16.49;51.35;99480.56;10282982;28;20230;-74
2023/09/20 05:30:51;;;;;;;3.53;2.47;;;;;;;16.94;50.47;99446.81;10265332;28;20242;-75
2023/09/20 05:35:52;;;;;;;4.97;2.17;;;;;;;17.35;50.41;99364.72;10240542;28;20223;-75
2023/09/20 05:40:54;;;;;;;3.20;2.20;;;;;;;16.94;50.89;99455.72;10262110;28;20270;-74
2023/09/20 05:45:59;;;;;;;3.30;2.10;;;;;;;17.00;50.89;99464.78;10286858;28;20226;-74
2023/09/20 05:51:01;;;;;;;2.80;2.37;;;;;;;17.66;49.77;99421.34;10284627;28;20230;-73
2023/09/20 05:56:11;;;;;;;4.20;2.50;;;;;;;17.97;49.35;99417.34;10282890;28;20219;-73
2023/09/20 06:01:13;;;;;;;2.70;1.97;;;;;;;16.56;51.66;99551.50;10287488;28;20708;-73
2023/09/20 06:06:15;;;;;;;3.77;2.60;;;;;;;16.53;52.52;99529.53;10286052;28;20230;-74
2023/09/20 06:11:18;;;;;;;4.13;2.37;;;;;;;16.79;51.74;99531.84;10286039;28;20241;-74
2023/09/20 06:16:22;;;;;;;5.03;2.73;;;;;;;17.50;51.01;99422.91;10288299;28;20325;-73
2023/09/20 06:21:24;;;;;;;3.60;2.90;;;;;;;17.30;50.92;99521.44;10288581;28;20249;-73
2023/09/20 06:26:26;;;;;;;3.10;2.43;;;;;;;17.43;51.05;99462.78;10287252;28;20321;-74
2023/09/20 06:31:29;;;;;;;3.27;2.47;;;;;;;16.38;52.73;99551.56;10287416;28;20244;-74
2023/09/20 06:36:30;;;;;;;6.33;3.00;;;;;;;17.02;51.96;99489.69;10285673;28;20817;-74
2023/09/20 06:41:32;;;;;;;3.83;2.90;;;;;;;17.39;51.22;99473.22;10286979;28;20332;-74
2023/09/20 06:46:34;;;;;;;5.20;2.90;;;;;;;17.57;50.64;99445.22;10289055;28;20237;-73
2023/09/20 06:51:36;;;;;;;3.20;2.23;;;;;;;17.24;51.84;99467.50;10286049;28;20249;-75
2023/09/20 06:56:37;;;;;;;3.80;2.13;;;;;;;16.76;52.89;99536.88;10292164;28;20236;-73
2023/09/20 07:01:39;;;;;;;6.23;2.40;;;;;;;18.15;50.07;99401.94;10302508;28;20280;-73
2023/09/20 07:06:42;;;;;;;2.53;2.17;;;;;;;17.95;50.44;99461.94;10278152;28;20231;-73
2023/09/20 07:11:44;;;;;;;4.40;2.40;;;;;;;16.86;52.43;99531.72;10255512;28;20230;-73
2023/09/20 07:16:49;;;;;;;4.67;2.70;;;;;;;17.85;50.92;99443.63;10272787;28;20229;-73
2023/09/20 07:21:50;;;;;;;4.63;2.30;;;;;;;17.57;51.77;99472.25;10291495;28;20749;-74
2023/09/20 07:26:52;;;;;;;2.57;2.00;;;;;;;18.34;51.04;99364.63;10291478;28;20729;-73
2023/09/20 07:31:54;;;;;;;3.77;2.27;;;;;;;17.74;51.88;99448.00;10298855;28;20240;-74
2023/09/20 07:36:57;;;;;;;5.83;2.17;;;;;;;18.52;49.68;99425.88;10293402;28;20272;-74
2023/09/20 07:41:58;;;;;;;4.03;2.43;;;;;;;16.63;52.99;99535.19;10297053;28;20230;-73
2023/09/20 07:47:00;;;;;;;3.97;2.50;;;;;;;18.30;50.42;99426.59;10296356;28;20269;-74
2023/09/20 07:52:04;;;;;;;3.27;2.37;;;;;;;18.55;50.04;99409.94;10289107;28;20480;-74
2023/09/20 07:57:05;;;;;;;5.30;2.20;;;;;;;18.26;50.43;99461.44;10295221;28;20744;-74
2023/09/20 08:02:09;;;;;;;4.27;2.90;;;;;;;16.90;52.02;99599.66;10293627;28;20384;-74
2023/09/20 08:07:12;;;;;;;3.47;2.53;;;;;;;18.63;49.15;99422.28;10267194;28;20234;-74
2023/09/20 08:12:16;;;;;;;3.63;2.43;;;;;;;19.69;47.32;99404.22;10252070;28;20294;-74
2023/09/20 09:00:07;;;;;;;2.77;2.27;;;;;;;18.91;50.39;99447.63;10348597;28;20323;-34
2023/09/20 09:05:11;;;;;;;5.23;3.00;;;;;;;19.76;48.51;99449.09;10355350;28;21925;-34
2023/09/20 09:10:13;;;;;;;2.60;1.80;;;;;;;19.36;49.19;99487.34;10349597;28;20229;-35
2023/09/20 09:15:16;;;;;;;3.85;2.35;;;;;;;20.30;48.30;99420.31;10347279;28;20229;-34
2023/09/20 09:20:19;;;;;;;2.33;1.60;;;;;;;19.53;48.92;99487.31;10349855;28;20225;-34
2023/09/20 09:25:29;;;;;;;2.30;1.92;;;;;;;19.18;50.04;99453.19;10344275;28;20806;-34
2023/09/20 09:30:31;;;;;;;3.28;2.03;;;;;;;19.83;48.63;99472.50;10349291;28;20225;-35
2023/09/20 09:35:33;;;;;;;2.08;1.70;;;;;;;19.26;48.54;99522.47;10351960;28;20286;-34
2023/09/20 09:40:53;;;;;;;3.35;2.03;;;;;;;19.18;48.84;99492.00;10344655;28;20606;-34
2023/09/20 09:46:15;;;;;;;3.20;2.00;;;;;;;20.60;47.04;99395.28;10345492;28;20233;-34
2023/09/20 09:51:17;;;;;;;5.18;2.53;;;;;;;20.55;45.88;99435.19;10348454;28;20714;-34
2023/09/20 09:56:21;;;;;;;3.13;2.00;;;;;;;20.66;45.54;99469.53;10352336;28;20232;-34
2023/09/20 10:01:23;;;;;;;3.65;1.95;;;;;;;20.63;45.40;99483.63;10357004;28;20237;-34
2023/09/20 10:06:28;;;;;;;2.40;1.77;;;;;;;21.10;43.78;99457.63;10349288;28;20229;-34
2023/09/20 10:11:29;;;;;;;2.35;1.80;;;;;;;20.72;44.37;99494.88;10353218;28;20287;-34
2023/09/20 10:16:32;;;;;;;2.38;1.70;;;;;;;20.86;45.06;99469.72;10352854;28;20242;-34
2023/09/20 10:21:37;;;;;;;1.90;1.77;;;;;;;21.38;44.03;99459.19;10350358;28;20413;-35
2023/09/20 10:26:39;;;;;;;1.83;1.67;;;;;;;20.98;44.89;99436.09;10363390;28;20336;-34
2023/09/20 10:31:42;;;;;;;1.80;1.70;;;;;;;20.95;43.71;99461.06;10356471;28;20726;-34
2023/09/20 10:36:54;;;;;;;2.28;1.65;;;;;;;21.36;43.88;99448.56;10347918;28;20230;-34
2023/09/20 10:42:08;;;;;;;4.20;1.90;;;;;;;21.29;43.29;99475.19;10343724;28;20692;-34
2023/09/20 10:47:13;;;;;;;2.15;1.92;;;;;;;22.93;41.74;99362.94;10353017;28;20307;-34
2023/09/20 10:52:30;;;;;;;2.33;1.90;;;;;;;21.29;43.40;99437.09;10347922;28;20364;-34
2023/09/20 10:57:32;;;;;;;2.58;1.70;;;;;;;21.00;43.25;99423.03;10352088;28;20235;-34
2023/09/20 11:06:17;;;;;;;2.40;1.90;;;;;;;20.70;44.23;99348.34;10435196;28;20794;-76
2023/09/20 11:11:19;;;;;;;2.25;1.60;;;;;;;22.09;42.66;99305.25;10378895;28;20236;-76
2023/09/20 11:16:21;;;;;;;2.83;1.80;;;;;;;21.20;42.54;99401.38;10375045;28;20236;-75
2023/09/20 11:21:24;;;;;;;2.70;1.70;;;;;;;21.11;42.45;99385.84;10375995;28;20324;-75
2023/09/20 11:26:29;;;;;;;2.45;1.60;;;;;;;21.49;42.49;99335.69;10375533;28;20248;-76
2023/09/20 11:31:35;;;;;;;3.53;1.90;;;;;;;22.38;41.66;99315.59;10375664;28;20920;-74
2023/09/20 11:36:44;;;;;;;3.28;1.60;;;;;;;21.70;41.85;99393.69;10372345;28;20229;-75
2023/09/20 11:41:46;;;;;;;2.30;1.50;;;;;;;21.92;40.86;99360.78;10369532;28;20328;-76
2023/09/20 11:46:53;;;;;;;1.67;1.55;;;;;;;22.25;40.30;99316.97;10372036;28;20228;-75
2023/09/20 11:51:57;;;;;;;5.25;1.60;;;;;;;23.26;39.99;99286.97;10374738;28;20221;-74
2023/09/20 11:57:00;;;;;;;3.17;1.58;;;;;;;22.76;40.37;99330.53;10365975;28;20273;-75
2023/09/20 12:02:02;;;;;;;2.60;1.90;;;;;;;22.65;39.74;99294.28;10372349;28;20243;-75
2023/09/20 12:07:07;;;;;;;4.45;1.85;;;;;;;22.13;40.87;99358.09;10368264;28;20261;-76
2023/09/20 12:12:10;;;;;;;3.70;1.85;;;;;;;22.05;41.12;99296.81;10369452;28;20770;-74
2023/09/20 12:17:12;;;;;;;4.80;1.90;;;;;;;21.70;40.80;99312.03;10345772;28;20239;-73
2023/09/20 12:22:14;;;;;;;1.58;1.48;;;;;;;23.42;39.76;99244.03;10342020;28;20472;-76
2023/09/20 12:27:17;;;;;;;2.20;1.60;;;;;;;22.87;40.00;99233.91;10342362;28;20268;-76
2023/09/20 12:32:19;;;;;;;3.85;1.60;;;;;;;23.03;39.25;99231.94;10378108;28;20256;-76
2023/09/20 12:37:21;;;;;;;1.90;1.40;;;;;;;23.19;39.25;99221.78;10388053;28;20237;-77
2023/09/20 12:42:23;;;;;;;2.80;1.65;;;;;;;22.84;39.01;99250.88;10386814;28;20228;-76
2023/09/20 12:47:25;;;;;;;2.15;1.70;;;;;;;22.71;39.65;99241.38;10389745;28;20323;-77
2023/09/20 12:52:27;;;;;;;2.03;1.50;;;;;;;23.00;39.00;99261.69;10389825;28;20232;-75
2023/09/20 12:57:29;;;;;;;2.15;1.27;;;;;;;21.98;40.33;99277.19;10386324;28;20230;-76
2023/09/20 13:02:30;;;;;;;2.08;1.52;;;;;;;23.55;38.74;99177.84;10392537;28;20310;-75
2023/09/20 13:07:32;;;;;;;3.50;1.63;;;;;;;22.50;39.36;99210.66;10386634;28;20981;-75
2023/09/20 13:12:36;;;;;;;2.97;1.40;;;;;;;22.58;39.26;99246.59;10389079;28;20257;-75
2023/09/20 13:17:37;;;;;;;1.85;1.25;;;;;;;23.50;38.63;99142.41;10391512;28;20257;-76
2023/09/20 13:22:40;;;;;;;1.60;1.40;;;;;;;22.49;39.03;99214.44;10385362;28;20294;-76
2023/09/20 13:27:42;;;;;;;2.13;1.50;;;;;;;22.50;39.62;99204.34;10384953;28;20229;-76
2023/09/20 13:32:47;;;;;;;1.80;1.58;;;;;;;23.77;38.13;99150.09;10387956;28;20230;-75
2023/09/20 13:37:49;;;;;;;1.40;1.30;;;;;;;23.59;38.73;99129.75;10383741;28;20237;-76
2023/09/20 13:42:50;;;;;;;4.75;1.70;;;;;;;21.89;39.04;99159.78;10386775;28;20255;-76
2023/09/20 13:47:53;;;;;;;2.05;1.63;;;;;;;22.63;38.74;99142.97;10388740;28;20231;-76
2023/09/20 13:52:57;;;;;;;1.73;1.60;;;;;;;23.35;37.75;99090.69;10384661;28;20666;-74
2023/09/20 13:58:01;;;;;;;4.38;1.63;;;;;;;23.40;37.39;99105.09;10383007;28;20232;-76
2023/09/20 14:03:03;;;;;;;25.98;2.40;;;;;;;23.15;37.90;99118.94;10383477;28;20233;-76
2023/09/20 14:08:07;;;;;;;1.73;1.42;;;;;;;22.36;37.83;99174.13;10382920;28;20264;-76
2023/09/20 14:13:09;;;;;;;1.85;1.60;;;;;;;23.40;37.88;99077.78;10387336;28;20267;-77
2023/09/20 14:18:11;;;;;;;4.22;1.58;;;;;;;23.81;37.36;99107.41;10384311;28;20239;-76
2023/09/20 14:23:13;;;;;;;5.07;2.47;;;;;;;23.12;37.64;99078.59;10381039;28;20244;-77
2023/09/20 14:28:15;;;;;;;2.50;1.65;;;;;;;24.13;37.24;99055.97;10380555;28;20262;-77
2023/09/20 14:33:18;;;;;;;1.92;1.60;;;;;;;24.59;37.28;99028.00;10371849;22;20234;-42
2023/09/20 14:38:24;;;;;;;2.50;1.50;;;;;;;23.51;36.96;99075.75;10292038;28;20279;-42
2023/09/20 14:43:26;;;;;;;1.73;1.63;;;;;;;23.39;37.33;99029.75;10290852;28;20241;-42
2023/09/20 14:48:28;;;;;;;2.38;1.60;;;;;;;23.04;37.92;99072.63;10295413;28;20217;-40
2023/09/20 14:53:30;;;;;;;3.40;1.80;;;;;;;23.40;36.64;99046.94;10330477;28;20232;-42
2023/09/20 14:58:32;;;;;;;6.88;3.33;;;;;;;22.90;37.41;99044.34;10337194;28;20299;-41
2023/09/20 15:03:34;;;;;;;3.75;1.77;;;;;;;22.51;37.62;99005.09;10327381;28;20742;-41
2023/09/20 15:08:36;;;;;;;2.28;1.88;;;;;;;23.93;37.05;98951.28;10334555;28;20320;-39
2023/09/20 15:13:39;;;;;;;2.03;1.73;;;;;;;23.49;37.71;99019.81;10332944;28;20225;-37
2023/09/20 15:18:43;;;;;;;2.20;1.70;;;;;;;24.24;36.29;98959.09;10325852;28;20600;-41
2023/09/20 15:23:49;;;;;;;2.25;1.73;;;;;;;23.92;36.60;98966.09;10336372;28;20241;-42
2023/09/20 15:28:51;;;;;;;1.92;1.73;;;;;;;23.98;36.03;98964.88;10330367;28;20568;-40
2023/09/20 15:33:53;;;;;;;2.92;1.50;;;;;;;23.91;36.83;98949.97;10331308;28;20328;-39
2023/09/20 15:38:56;;;;;;;2.20;1.60;;;;;;;24.03;36.71;98936.69;10332405;28;20297;-41
2023/09/20 15:44:00;;;;;;;2.00;1.40;;;;;;;24.23;36.64;98949.28;10331494;28;20237;-42
2023/09/20 15:49:02;;;;;;;2.45;1.83;;;;;;;24.35;36.06;98916.00;10331132;28;20234;-41
2023/09/20 15:54:04;;;;;;;2.47;1.80;;;;;;;23.83;36.62;98948.72;10337212;28;20233;-42
2023/09/20 15:59:06;;;;;;;1.88;1.50;;;;;;;23.75;36.70;98936.53;10338151;28;20230;-42
2023/09/20 16:04:08;;;;;;;1.80;1.50;;;;;;;24.32;36.58;98881.06;10332537;28;20369;-42
2023/09/20 16:09:10;;;;;;;2.08;1.58;;;;;;;24.08;35.98;98905.75;10336706;28;20341;-40
2023/09/20 16:14:11;;;;;;;2.30;1.70;;;;;;;24.67;36.33;98865.97;10331947;28;20225;-42
2023/09/20 16:19:13;;;;;;;1.48;1.38;;;;;;;24.33;36.36;98893.63;10330718;28;20305;-41
2023/09/20 16:24:16;;;;;;;2.35;1.70;;;;;;;25.02;35.89;98866.44;10341291;28;20237;-40
2023/09/20 16:29:18;;;;;;;2.22;1.40;;;;;;;23.72;37.01;98920.72;10336800;28;20233;-41
2023/09/20 16:34:21;;;;;;;1.67;1.55;;;;;;;23.66;37.08;98951.13;10332636;28;20647;-40
2023/09/20 16:39:23;;;;;;;2.67;1.67;;;;;;;23.57;36.98;98908.06;10335860;28;20312;-41
2023/09/20 16:44:24;;;;;;;2.78;1.70;;;;;;;24.27;36.74;98879.22;10336145;28;20241;-41
2023/09/20 16:49:26;;;;;;;2.38;1.80;;;;;;;24.75;37.09;98861.75;10333676;28;20466;-40
2023/09/20 16:54:28;;;;;;;1.60;1.50;;;;;;;24.75;36.54;98872.72;10340188;28;20787;-42
2023/09/20 16:59:30;;;;;;;3.80;1.75;;;;;;;23.97;37.01;98935.13;10337080;28;20791;-42
2023/09/20 17:04:33;;;;;;;3.55;1.75;;;;;;;23.57;37.76;98897.13;10335709;28;20577;-41
2023/09/20 17:09:36;;;;;;;1.95;1.70;;;;;;;24.08;38.06;98854.63;10332585;28;20240;-37
2023/09/20 17:14:38;;;;;;;1.40;1.27;;;;;;;24.28;37.61;98836.31;10330436;28;20250;-39
2023/09/20 17:19:42;;;;;;;2.63;1.63;;;;;;;24.21;37.79;98847.63;10331188;28;20240;-41
2023/09/20 17:24:45;;;;;;;2.55;1.40;;;;;;;24.63;37.18;98826.69;10330300;28;20233;-39
2023/09/20 17:29:46;;;;;;;2.88;1.70;;;;;;;25.18;35.84;98860.66;10334934;28;20368;-41
2023/09/20 17:34:48;;;;;;;1.63;1.50;;;;;;;25.69;35.96;98845.09;10336084;28;20622;-41
2023/09/20 17:39:51;;;;;;;2.45;1.65;;;;;;;24.41;37.47;98851.13;10335548;28;20279;-41
2023/09/20 17:44:53;;;;;;;2.33;1.73;;;;;;;24.89;37.03;98883.66;10336931;28;20303;-40
2023/09/20 17:49:57;;;;;;;2.55;1.55;;;;;;;23.83;38.14;98864.03;10331903;28;20709;-42
2023/09/20 17:54:59;;;;;;;2.13;1.83;;;;;;;23.33;38.43;98878.06;10334282;28;20238;-42
2023/09/20 18:00:11;;;;;;;2.20;1.67;;;;;;;25.13;36.39;98838.88;10337340;28;20240;-41
2023/09/20 18:05:12;;;;;;;1.60;1.48;;;;;;;25.03;36.33;98859.84;10334961;28;20268;-40
2023/09/20 18:10:15;;;;;;;3.03;1.70;;;;;;;25.01;36.40;98883.16;10342117;28;20597;-41
2023/09/20 18:15:18;;;;;;;1.70;1.50;;;;;;;24.90;36.12;98891.56;10325264;28;20245;-41
2023/09/20 18:20:19;;;;;;;2.65;1.58;;;;;;;24.60;36.82;98922.97;10329130;28;20230;-40
2023/09/20 18:25:21;;;;;;;2.75;1.75;;;;;;;24.81;36.53;98900.78;10330009;28;20324;-41
2023/09/20 18:30:24;;;;;;;2.67;1.55;;;;;;;24.57;37.24;98915.38;10328362;28;20271;-41
2023/09/20 18:35:27;;;;;;;2.35;1.40;;;;;;;24.04;37.83;98912.91;10333014;28;20405;-40
2023/09/20 18:40:29;;;;;;;2.30;1.73;;;;;;;24.11;38.15;98896.97;10325991;28;20234;-38
2023/09/20 18:45:30;;;;;;;3.92;1.80;;;;;;;23.67;38.81;98904.41;10327249;28;20300;-39
2023/09/20 18:50:33;;;;;;;2.08;1.60;;;;;;;23.73;38.86;98899.69;10328870;28;20350;-38
2023/09/20 18:55:35;;;;;;;2.55;1.90;;;;;;;24.18;38.39;98867.38;10328991;28;20322;-42
2023/09/20 19:00:40;;;;;;;3.38;1.77;;;;;;;23.88;38.79;98882.28;10329542;28;20230;-40
2023/09/20 19:05:44;;;;;;;1.85;1.70;;;;;;;22.11;41.03;98899.88;10322423;28;20248;-40
2023/09/20 19:10:47;;;;;;;2.00;1.80;;;;;;;21.28;42.64;98877.69;10326390;28;20237;-42
2023/09/20 19:15:49;;;;;;;2.75;2.13;;;;;;;22.68;41.05;98810.31;10325650;28;20267;-40
2023/09/20 19:20:52;;;;;;;2.90;2.03;;;;;;;21.76;42.19;98875.31;10326899;28;20650;-39
2023/09/20 19:25:55;;;;;;;2.15;1.83;;;;;;;23.28;40.14;98820.00;10327807;28;20243;-39
2023/09/20 19:30:59;;;;;;;2.83;2.00;;;;;;;22.36;41.73;98838.94;10337311;28;20233;-40
2023/09/20 19:36:01;;;;;;;4.32;1.77;;;;;;;22.32;41.67;98821.53;10331748;28;20324;-39
2023/09/20 19:41:08;;;;;;;2.80;2.17;;;;;;;22.15;41.84;98828.22;10336527;28;20238;-39
2023/09/20 19:46:11;;;;;;;2.45;1.70;;;;;;;22.79;40.58;98819.19;10339055;28;20237;-39
2023/09/20 19:51:13;;;;;;;2.95;2.22;;;;;;;18.81;46.76;98889.97;10334298;28;20237;-40
2023/09/20 19:56:24;;;;;;;2.17;1.90;;;;;;;21.39;43.94;98773.19;10335411;28;20233;-39
2023/09/20 20:01:26;;;;;;;2.45;1.98;;;;;;;19.13;47.65;98762.50;10337974;28;20249;-42
2023/09/20 20:06:28;;;;;;;2.58;2.10;;;;;;;20.11;44.86;98842.22;10341628;28;20259;-39
2023/09/20 20:11:30;;;;;;;2.45;2.25;;;;;;;20.57;44.88;98799.81;10336403;28;20230;-42
2023/09/20 20:16:37;;;;;;;3.47;2.13;;;;;;;18.95;46.96;98847.81;10338161;28;20336;-39
2023/09/20 20:21:39;;;;;;;2.38;2.15;;;;;;;20.80;44.40;98812.00;10336771;28;20237;-39
2023/09/20 20:26:41;;;;;;;2.60;2.17;;;;;;;21.19;43.69;98786.88;10335892;28;20237;-40
2023/09/20 20:31:43;;;;;;;3.33;2.28;;;;;;;21.19;43.68;98857.59;10336417;28;20793;-41
2023/09/20 20:36:46;;;;;;;2.15;1.92;;;;;;;21.42;43.51;98842.53;10333163;28;20241;-41
2023/09/20 20:41:50;;;;;;;3.38;2.08;;;;;;;20.93;44.57;98852.22;10334373;28;20252;-40
2023/09/20 20:46:53;;;;;;;2.20;2.00;;;;;;;20.29;44.67;98889.78;10332814;28;20243;-41
2023/09/20 20:51:55;;;;;;;2.67;2.03;;;;;;;21.46;43.85;98813.69;10334339;28;20233;-42
2023/09/20 20:56:57;;;;;;;2.33;2.08;;;;;;;21.20;43.52;98867.38;10333264;28;20233;-41
2023/09/20 21:02:01;;;;;;;2.20;1.83;;;;;;;21.09;43.54;98895.69;10331941;28;20241;-42
2023/09/20 21:07:02;;;;;;;2.70;1.95;;;;;;;21.01;44.11;98857.09;10348817;28;20244;-41
2023/09/20 21:12:09;;;;;;;2.78;2.05;;;;;;;21.11;43.89;98855.44;10325775;28;20234;-41
2023/09/20 21:17:11;;;;;;;3.50;2.33;;;;;;;20.08;45.26;98917.97;10327150;28;20273;-39
2023/09/20 21:22:13;;;;;;;4.05;2.22;;;;;;;20.59;45.09;98835.69;10332656;28;20236;-40
2023/09/20 21:27:15;;;;;;;2.63;2.42;;;;;;;20.12;45.56;98889.19;10329004;28;20232;-40
2023/09/20 21:32:17;;;;;;;2.85;2.15;;;;;;;18.88;47.19;98879.72;10329304;28;20735;-40
2023/09/20 21:37:19;;;;;;;3.85;2.45;;;;;;;19.66;46.46;98772.41;10330498;28;20635;-42
2023/09/20 21:42:20;;;;;;;2.72;2.28;;;;;;;20.69;44.50;98794.91;10324683;28;20260;-41
2023/09/20 21:47:22;;;;;;;2.67;2.30;;;;;;;20.05;45.48;98845.19;10329574;28;20720;-45
2023/09/20 21:52:25;;;;;;;2.33;2.13;;;;;;;19.17;46.26;98892.94;10333484;28;20230;-39
2023/09/20 21:57:27;;;;;;;2.65;2.28;;;;;;;20.00;45.50;98878.56;10331260;28;20257;-41
2023/09/20 22:02:29;;;;;;;2.95;2.08;;;;;;;20.28;45.00;98850.13;10328362;28;20225;-39
2023/09/20 22:07:31;;;;;;;2.90;2.10;;;;;;;19.51;46.11;98820.09;10332080;28;20237;-40
2023/09/20 22:12:33;;;;;;;3.83;2.00;;;;;;;19.69;45.83;98837.00;10327078;28;20264;-40
2023/09/20 22:17:36;;;;;;;4.43;2.28;;;;;;;19.83;45.44;98840.00;10326955;28;20240;-40
2023/09/20 22:22:39;;;;;;;2.45;2.10;;;;;;;20.00;44.89;98818.03;10330781;28;20632;-37
2023/09/20 22:27:41;;;;;;;3.88;2.20;;;;;;;19.80;45.17;98875.81;10333908;28;20233;-41
2023/09/20 22:32:44;;;;;;;3.38;2.28;;;;;;;19.64;45.67;98856.78;10329822;28;20244;-41
2023/09/20 22:37:49;;;;;;;3.30;2.00;;;;;;;19.44;45.54;98875.69;10329851;28;20233;-38
2023/09/20 22:42:52;;;;;;;3.03;2.67;;;;;;;20.16;44.31;98825.09;10329707;28;20229;-39
2023/09/20 22:47:58;;;;;;;2.30;1.90;;;;;;;19.09;46.30;98856.28;10327516;28;20260;-41
2023/09/20 22:53:08;;;;;;;4.80;2.20;;;;;;;19.18;45.89;98868.28;10328938;28;20589;-39
2023/09/20 22:58:17;;;;;;;3.22;2.60;;;;;;;18.73;46.58;98875.03;10330468;28;20327;-39
2023/09/20 23:03:21;;;;;;;3.20;2.35;;;;;;;18.56;47.11;98834.53;10336418;28;20240;-40
2023/09/20 23:08:25;;;;;;;4.43;3.13;;;;;;;19.82;44.84;98774.03;10318662;28;20295;-39
2023/09/20 23:13:33;;;;;;;5.97;2.50;;;;;;;19.28;46.16;98812.44;10328739;28;20708;-40
2023/09/20 23:18:35;;;;;;;3.03;2.53;;;;;;;18.34;47.46;98853.63;10324729;28;20214;-41
2023/09/20 23:23:37;;;;;;;3.15;2.13;;;;;;;19.61;45.66;98748.78;10326885;28;20238;-40
2023/09/20 23:28:39;;;;;;;3.60;2.57;;;;;;;19.27;45.56;98846.06;10327145;28;20246;-41
2023/09/20 23:33:42;;;;;;;5.05;2.50;;;;;;;18.66;47.04;98841.94;10326032;28;20244;-39
2023/09/20 23:38:45;;;;;;;2.97;2.30;;;;;;;19.50;46.21;98782.38;10326435;28;20221;-40
2023/09/20 23:43:52;;;;;;;2.67;2.30;;;;;;;18.69;47.20;98841.38;10329134;28;20236;-38
2023/09/20 23:48:54;;;;;;;5.05;3.03;;;;;;;18.27;48.63;98804.22;10330533;28;20326;-41
2023/09/20 23:53:58;;;;;;;4.70;2.35;;;;;;;17.92;49.03;98825.34;10329001;28;20260;-38
2023/09/20 23:59:00;;;;;;;2.97;2.30;;;;;;;18.04;49.50;98768.31;10325866;28;20244;-41
